sensor_id;sensor_type;location;lat;lon;timestamp;P1;durP1;ratioP1;P2;durP2;ratioP2
2061;SDS011;11070;51.336;12.340;2023-06-14T00:01:35;4.37;;;4.07;;
2061;SDS011;11070;51.336;12.340;2023-06-14T00:04:03;4.70;;;4.40;;
2061;SDS011;11070;51.336;12.340;2023-06-14T00:06:33;4.15;;;3.85;;
2061;SDS011;11070;51.336;12.340;2023-06-14T00:08:59;4.30;;;4.00;;
2061;SDS011;11070;51.336;12.340;2023-06-14T00:11:25;4.57;;;4.27;;
2061;SDS011;11070;51.336;12.340;2023-06-14T00:13:52;5.50;;;4.75;;
2061;SDS011;11070;51.336;12.340;2023-06-14T00:16:18;4.63;;;4.25;;
2061;SDS011;11070;51.336;12.340;2023-06-14T00:18:44;4.40;;;4.00;;
2061;SDS011;11070;51.336;12.340;2023-06-14T00:21:11;5.45;;;4.38;;
2061;SDS011;11070;51.336;12.340;2023-06-14T00:23:37;4.50;;;4.20;;
2061;SDS011;11070;51.336;12.340;2023-06-14T00:26:03;4.60;;;4.20;;
2061;SDS011;11070;51.336;12.340;2023-06-14T00:28:29;4.80;;;4.40;;
2061;SDS011;11070;51.336;12.340;2023-06-14T00:30:54;5.00;;;4.60;;
2061;SDS011;11070;51.336;12.340;2023-06-14T00:33:20;5.83;;;4.60;;
2061;SDS011;11070;51.336;12.340;2023-06-14T00:35:46;5.13;;;4.60;;
2061;SDS011;11070;51.336;12.340;2023-06-14T00:38:12;4.32;;;4.03;;
2061;SDS011;11070;51.336;12.340;2023-06-14T00:40:38;5.60;;;5.10;;
2061;SDS011;11070;51.336;12.340;2023-06-14T00:43:03;5.23;;;4.80;;
2061;SDS011;11070;51.336;12.340;2023-06-14T00:45:29;5.53;;;5.03;;
2061;SDS011;11070;51.336;12.340;2023-06-14T00:47:56;4.75;;;4.32;;
2061;SDS011;11070;51.336;12.340;2023-06-14T00:50:22;6.55;;;5.07;;
2061;SDS011;11070;51.336;12.340;2023-06-14T00:52:49;11.00;;;5.18;;
2061;SDS011;11070;51.336;12.340;2023-06-14T00:55:15;8.82;;;5.43;;
2061;SDS011;11070;51.336;12.340;2023-06-14T00:57:44;5.10;;;4.60;;
2061;SDS011;11070;51.336;12.340;2023-06-14T01:00:10;6.00;;;4.60;;
2061;SDS011;11070;51.336;12.340;2023-06-14T01:02:37;4.93;;;4.53;;
2061;SDS011;11070;51.336;12.340;2023-06-14T01:05:02;6.05;;;4.85;;
2061;SDS011;11070;51.336;12.340;2023-06-14T01:15:44;6.60;;;5.13;;
2061;SDS011;11070;51.336;12.340;2023-06-14T01:18:12;5.40;;;5.00;;
2061;SDS011;11070;51.336;12.340;2023-06-14T01:20:50;5.65;;;5.10;;
2061;SDS011;11070;51.336;12.340;2023-06-14T01:23:20;6.10;;;5.60;;
2061;SDS011;11070;51.336;12.340;2023-06-14T01:25:47;5.18;;;4.78;;
2061;SDS011;11070;51.336;12.340;2023-06-14T01:28:17;6.40;;;5.53;;
2061;SDS011;11070;51.336;12.340;2023-06-14T01:30:46;6.00;;;5.38;;
2061;SDS011;11070;51.336;12.340;2023-06-14T01:33:23;5.88;;;5.38;;
2061;SDS011;11070;51.336;12.340;2023-06-14T01:35:53;6.20;;;5.65;;
2061;SDS011;11070;51.336;12.340;2023-06-14T01:38:21;5.80;;;5.30;;
2061;SDS011;11070;51.336;12.340;2023-06-14T01:40:49;5.43;;;5.03;;
2061;SDS011;11070;51.336;12.340;2023-06-14T01:43:16;5.97;;;5.47;;
2061;SDS011;11070;51.336;12.340;2023-06-14T01:45:44;6.20;;;5.35;;
2061;SDS011;11070;51.336;12.340;2023-06-14T01:48:12;5.78;;;5.35;;
2061;SDS011;11070;51.336;12.340;2023-06-14T01:50:38;6.60;;;5.15;;
2061;SDS011;11070;51.336;12.340;2023-06-14T01:53:07;5.93;;;5.43;;
2061;SDS011;11070;51.336;12.340;2023-06-14T01:55:34;6.07;;;5.43;;
2061;SDS011;11070;51.336;12.340;2023-06-14T01:58:02;5.53;;;5.13;;
2061;SDS011;11070;51.336;12.340;2023-06-14T02:00:28;5.43;;;5.00;;
2061;SDS011;11070;51.336;12.340;2023-06-14T02:02:54;5.70;;;5.20;;
2061;SDS011;11070;51.336;12.340;2023-06-14T02:05:20;9.23;;;6.05;;
2061;SDS011;11070;51.336;12.340;2023-06-14T02:07:46;5.27;;;4.87;;
2061;SDS011;11070;51.336;12.340;2023-06-14T02:10:12;6.03;;;5.53;;
2061;SDS011;11070;51.336;12.340;2023-06-14T02:12:39;5.53;;;5.03;;
2061;SDS011;11070;51.336;12.340;2023-06-14T02:15:05;6.60;;;4.93;;
2061;SDS011;11070;51.336;12.340;2023-06-14T02:17:32;5.30;;;4.90;;
2061;SDS011;11070;51.336;12.340;2023-06-14T02:19:57;6.33;;;5.80;;
2061;SDS011;11070;51.336;12.340;2023-06-14T02:22:23;5.33;;;4.67;;
2061;SDS011;11070;51.336;12.340;2023-06-14T02:24:49;5.72;;;5.13;;
2061;SDS011;11070;51.336;12.340;2023-06-14T02:27:15;6.27;;;5.67;;
2061;SDS011;11070;51.336;12.340;2023-06-14T02:29:41;6.65;;;4.97;;
2061;SDS011;11070;51.336;12.340;2023-06-14T02:32:07;5.50;;;5.00;;
2061;SDS011;11070;51.336;12.340;2023-06-14T02:34:33;7.00;;;5.00;;
2061;SDS011;11070;51.336;12.340;2023-06-14T02:36:59;7.53;;;4.75;;
2061;SDS011;11070;51.336;12.340;2023-06-14T02:39:27;7.53;;;4.97;;
2061;SDS011;11070;51.336;12.340;2023-06-14T02:41:53;5.57;;;5.03;;
2061;SDS011;11070;51.336;12.340;2023-06-14T02:44:19;5.10;;;4.70;;
2061;SDS011;11070;51.336;12.340;2023-06-14T02:46:48;4.90;;;4.45;;
2061;SDS011;11070;51.336;12.340;2023-06-14T02:49:14;5.57;;;5.10;;
2061;SDS011;11070;51.336;12.340;2023-06-14T02:51:40;4.90;;;4.50;;
2061;SDS011;11070;51.336;12.340;2023-06-14T02:54:06;5.00;;;4.60;;
2061;SDS011;11070;51.336;12.340;2023-06-14T02:56:31;5.33;;;4.93;;
2061;SDS011;11070;51.336;12.340;2023-06-14T02:58:57;8.20;;;5.17;;
2061;SDS011;11070;51.336;12.340;2023-06-14T03:01:24;5.23;;;4.83;;
2061;SDS011;11070;51.336;12.340;2023-06-14T03:03:59;5.90;;;5.30;;
2061;SDS011;11070;51.336;12.340;2023-06-14T03:06:30;4.72;;;4.32;;
2061;SDS011;11070;51.336;12.340;2023-06-14T03:08:57;5.70;;;5.17;;
2061;SDS011;11070;51.336;12.340;2023-06-14T03:11:29;5.25;;;4.85;;
2061;SDS011;11070;51.336;12.340;2023-06-14T03:13:55;5.03;;;4.65;;
2061;SDS011;11070;51.336;12.340;2023-06-14T03:16:21;5.60;;;4.93;;
2061;SDS011;11070;51.336;12.340;2023-06-14T03:18:49;5.38;;;4.88;;
2061;SDS011;11070;51.336;12.340;2023-06-14T03:21:16;5.60;;;4.85;;
2061;SDS011;11070;51.336;12.340;2023-06-14T03:23:42;8.02;;;5.20;;
2061;SDS011;11070;51.336;12.340;2023-06-14T03:26:08;5.75;;;5.25;;
2061;SDS011;11070;51.336;12.340;2023-06-14T03:28:34;5.40;;;4.90;;
2061;SDS011;11070;51.336;12.340;2023-06-14T03:31:00;5.90;;;5.40;;
2061;SDS011;11070;51.336;12.340;2023-06-14T03:33:26;4.80;;;4.40;;
2061;SDS011;11070;51.336;12.340;2023-06-14T03:35:52;5.80;;;5.30;;
2061;SDS011;11070;51.336;12.340;2023-06-14T03:38:19;5.10;;;4.45;;
2061;SDS011;11070;51.336;12.340;2023-06-14T03:40:44;5.10;;;4.60;;
2061;SDS011;11070;51.336;12.340;2023-06-14T03:43:10;4.97;;;4.57;;
2061;SDS011;11070;51.336;12.340;2023-06-14T03:45:36;5.33;;;4.93;;
2061;SDS011;11070;51.336;12.340;2023-06-14T03:48:01;5.83;;;5.33;;
2061;SDS011;11070;51.336;12.340;2023-06-14T03:50:27;5.18;;;4.80;;
2061;SDS011;11070;51.336;12.340;2023-06-14T03:52:53;5.57;;;5.07;;
2061;SDS011;11070;51.336;12.340;2023-06-14T03:55:19;5.00;;;4.60;;
2061;SDS011;11070;51.336;12.340;2023-06-14T03:57:45;5.40;;;4.90;;
2061;SDS011;11070;51.336;12.340;2023-06-14T04:00:10;6.00;;;5.43;;
2061;SDS011;11070;51.336;12.340;2023-06-14T04:02:37;5.60;;;5.10;;
2061;SDS011;11070;51.336;12.340;2023-06-14T04:05:03;6.53;;;5.23;;
2061;SDS011;11070;51.336;12.340;2023-06-14T04:07:33;5.90;;;5.28;;
2061;SDS011;11070;51.336;12.340;2023-06-14T04:10:04;7.10;;;5.50;;
2061;SDS011;11070;51.336;12.340;2023-06-14T04:12:31;6.45;;;5.55;;
2061;SDS011;11070;51.336;12.340;2023-06-14T04:14:57;7.17;;;5.30;;
2061;SDS011;11070;51.336;12.340;2023-06-14T04:17:23;5.27;;;4.87;;
2061;SDS011;11070;51.336;12.340;2023-06-14T04:19:48;6.17;;;5.53;;
2061;SDS011;11070;51.336;12.340;2023-06-14T04:22:14;5.60;;;5.20;;
2061;SDS011;11070;51.336;12.340;2023-06-14T04:24:39;5.43;;;4.93;;
2061;SDS011;11070;51.336;12.340;2023-06-14T04:27:07;5.45;;;5.05;;
2061;SDS011;11070;51.336;12.340;2023-06-14T04:29:33;6.07;;;5.47;;
2061;SDS011;11070;51.336;12.340;2023-06-14T04:31:58;6.40;;;5.80;;
2061;SDS011;11070;51.336;12.340;2023-06-14T04:34:28;6.20;;;5.27;;
2061;SDS011;11070;51.336;12.340;2023-06-14T04:36:59;7.03;;;5.72;;
2061;SDS011;11070;51.336;12.340;2023-06-14T04:39:26;6.85;;;5.57;;
2061;SDS011;11070;51.336;12.340;2023-06-14T04:41:52;6.60;;;5.65;;
2061;SDS011;11070;51.336;12.340;2023-06-14T04:44:21;5.90;;;5.50;;
2061;SDS011;11070;51.336;12.340;2023-06-14T04:46:55;5.82;;;5.22;;
2061;SDS011;11070;51.336;12.340;2023-06-14T04:49:23;7.63;;;6.40;;
2061;SDS011;11070;51.336;12.340;2023-06-14T04:51:49;7.38;;;6.18;;
2061;SDS011;11070;51.336;12.340;2023-06-14T04:54:22;6.63;;;6.03;;
2061;SDS011;11070;51.336;12.340;2023-06-14T04:56:49;8.70;;;7.03;;
2061;SDS011;11070;51.336;12.340;2023-06-14T04:59:15;6.73;;;6.10;;
2061;SDS011;11070;51.336;12.340;2023-06-14T05:01:42;8.10;;;6.07;;
2061;SDS011;11070;51.336;12.340;2023-06-14T05:04:12;7.70;;;6.05;;
2061;SDS011;11070;51.336;12.340;2023-06-14T05:06:40;7.00;;;6.40;;
2061;SDS011;11070;51.336;12.340;2023-06-14T05:09:06;7.05;;;6.40;;
2061;SDS011;11070;51.336;12.340;2023-06-14T05:11:31;10.57;;;6.27;;
2061;SDS011;11070;51.336;12.340;2023-06-14T05:13:57;7.10;;;6.40;;
2061;SDS011;11070;51.336;12.340;2023-06-14T05:16:23;8.03;;;6.83;;
2061;SDS011;11070;51.336;12.340;2023-06-14T05:18:50;14.00;;;6.50;;
2061;SDS011;11070;51.336;12.340;2023-06-14T05:21:17;14.90;;;6.63;;
2061;SDS011;11070;51.336;12.340;2023-06-14T05:23:43;7.65;;;6.95;;
2061;SDS011;11070;51.336;12.340;2023-06-14T05:26:10;8.38;;;6.30;;
2061;SDS011;11070;51.336;12.340;2023-06-14T05:28:35;7.28;;;6.68;;
2061;SDS011;11070;51.336;12.340;2023-06-14T05:31:01;7.63;;;6.83;;
2061;SDS011;11070;51.336;12.340;2023-06-14T05:33:27;7.23;;;6.50;;
2061;SDS011;11070;51.336;12.340;2023-06-14T05:35:53;7.20;;;6.60;;
2061;SDS011;11070;51.336;12.340;2023-06-14T05:38:19;9.60;;;7.67;;
2061;SDS011;11070;51.336;12.340;2023-06-14T05:40:44;7.87;;;7.07;;
2061;SDS011;11070;51.336;12.340;2023-06-14T05:43:10;7.77;;;7.00;;
2061;SDS011;11070;51.336;12.340;2023-06-14T05:45:36;8.20;;;6.80;;
2061;SDS011;11070;51.336;12.340;2023-06-14T05:48:01;8.20;;;7.40;;
2061;SDS011;11070;51.336;12.340;2023-06-14T05:50:27;8.07;;;7.27;;
2061;SDS011;11070;51.336;12.340;2023-06-14T05:52:53;7.50;;;6.80;;
2061;SDS011;11070;51.336;12.340;2023-06-14T05:55:19;7.20;;;6.60;;
2061;SDS011;11070;51.336;12.340;2023-06-14T05:57:44;7.67;;;7.03;;
2061;SDS011;11070;51.336;12.340;2023-06-14T06:00:11;9.43;;;7.43;;
2061;SDS011;11070;51.336;12.340;2023-06-14T06:02:39;10.70;;;7.35;;
2061;SDS011;11070;51.336;12.340;2023-06-14T06:05:14;8.52;;;7.70;;
2061;SDS011;11070;51.336;12.340;2023-06-14T06:07:42;9.30;;;7.65;;
2061;SDS011;11070;51.336;12.340;2023-06-14T06:10:10;7.70;;;7.00;;
2061;SDS011;11070;51.336;12.340;2023-06-14T06:12:36;8.00;;;7.30;;
2061;SDS011;11070;51.336;12.340;2023-06-14T06:15:02;8.43;;;7.63;;
2061;SDS011;11070;51.336;12.340;2023-06-14T06:17:29;10.68;;;7.93;;
2061;SDS011;11070;51.336;12.340;2023-06-14T06:19:54;10.13;;;8.10;;
2061;SDS011;11070;51.336;12.340;2023-06-14T06:22:20;10.53;;;7.97;;
2061;SDS011;11070;51.336;12.340;2023-06-14T06:24:46;8.40;;;7.60;;
2061;SDS011;11070;51.336;12.340;2023-06-14T06:27:12;8.70;;;7.90;;
2061;SDS011;11070;51.336;12.340;2023-06-14T06:29:38;9.60;;;7.80;;
2061;SDS011;11070;51.336;12.340;2023-06-14T06:32:04;8.23;;;7.40;;
2061;SDS011;11070;51.336;12.340;2023-06-14T06:34:30;9.80;;;8.00;;
2061;SDS011;11070;51.336;12.340;2023-06-14T06:36:56;8.73;;;7.80;;
2061;SDS011;11070;51.336;12.340;2023-06-14T06:39:21;9.23;;;8.30;;
2061;SDS011;11070;51.336;12.340;2023-06-14T06:41:47;11.20;;;7.80;;
2061;SDS011;11070;51.336;12.340;2023-06-14T06:44:13;8.07;;;7.23;;
2061;SDS011;11070;51.336;12.340;2023-06-14T06:46:38;8.33;;;7.63;;
2061;SDS011;11070;51.336;12.340;2023-06-14T06:49:06;9.07;;;8.25;;
2061;SDS011;11070;51.336;12.340;2023-06-14T06:51:32;9.38;;;7.68;;
2061;SDS011;11070;51.336;12.340;2023-06-14T06:53:59;10.65;;;8.73;;
2061;SDS011;11070;51.336;12.340;2023-06-14T06:56:25;9.60;;;7.97;;
2061;SDS011;11070;51.336;12.340;2023-06-14T06:58:51;9.13;;;8.20;;
2061;SDS011;11070;51.336;12.340;2023-06-14T07:01:17;7.68;;;6.97;;
2061;SDS011;11070;51.336;12.340;2023-06-14T07:03:44;8.50;;;7.80;;
2061;SDS011;11070;51.336;12.340;2023-06-14T07:06:10;9.05;;;7.43;;
2061;SDS011;11070;51.336;12.340;2023-06-14T07:08:36;8.88;;;8.00;;
2061;SDS011;11070;51.336;12.340;2023-06-14T07:11:03;8.00;;;7.13;;
2061;SDS011;11070;51.336;12.340;2023-06-14T07:13:30;7.50;;;6.80;;
2061;SDS011;11070;51.336;12.340;2023-06-14T07:15:58;7.45;;;6.80;;
2061;SDS011;11070;51.336;12.340;2023-06-14T07:18:27;7.65;;;7.05;;
2061;SDS011;11070;51.336;12.340;2023-06-14T07:20:53;9.87;;;7.40;;
2061;SDS011;11070;51.336;12.340;2023-06-14T07:23:20;6.93;;;6.32;;
2061;SDS011;11070;51.336;12.340;2023-06-14T07:25:46;6.97;;;6.38;;
2061;SDS011;11070;51.336;12.340;2023-06-14T07:28:12;6.25;;;5.82;;
2061;SDS011;11070;51.336;12.340;2023-06-14T07:30:37;6.90;;;5.90;;
2061;SDS011;11070;51.336;12.340;2023-06-14T07:33:03;7.57;;;6.63;;
2061;SDS011;11070;51.336;12.340;2023-06-14T07:35:29;7.10;;;6.50;;
2061;SDS011;11070;51.336;12.340;2023-06-14T07:37:54;9.40;;;6.47;;
2061;SDS011;11070;51.336;12.340;2023-06-14T07:40:20;7.47;;;6.43;;
2061;SDS011;11070;51.336;12.340;2023-06-14T07:42:46;7.07;;;6.37;;
2061;SDS011;11070;51.336;12.340;2023-06-14T07:45:15;6.17;;;5.60;;
2061;SDS011;11070;51.336;12.340;2023-06-14T07:47:40;6.95;;;6.25;;
2061;SDS011;11070;51.336;12.340;2023-06-14T07:50:06;6.77;;;6.20;;
2061;SDS011;11070;51.336;12.340;2023-06-14T07:52:32;6.90;;;6.30;;
2061;SDS011;11070;51.336;12.340;2023-06-14T07:54:58;6.93;;;6.33;;
2061;SDS011;11070;51.336;12.340;2023-06-14T07:57:24;7.10;;;6.50;;
2061;SDS011;11070;51.336;12.340;2023-06-14T07:59:49;6.23;;;5.67;;
2061;SDS011;11070;51.336;12.340;2023-06-14T08:02:15;6.45;;;5.85;;
2061;SDS011;11070;51.336;12.340;2023-06-14T08:04:41;6.27;;;5.67;;
2061;SDS011;11070;51.336;12.340;2023-06-14T08:07:07;6.20;;;5.70;;
2061;SDS011;11070;51.336;12.340;2023-06-14T08:09:33;6.37;;;5.77;;
2061;SDS011;11070;51.336;12.340;2023-06-14T08:11:59;6.15;;;5.65;;
2061;SDS011;11070;51.336;12.340;2023-06-14T08:14:25;7.00;;;6.37;;
2061;SDS011;11070;51.336;12.340;2023-06-14T08:16:51;6.60;;;5.83;;
2061;SDS011;11070;51.336;12.340;2023-06-14T08:19:16;5.63;;;5.20;;
2061;SDS011;11070;51.336;12.340;2023-06-14T08:21:43;6.83;;;6.23;;
2061;SDS011;11070;51.336;12.340;2023-06-14T08:24:08;6.17;;;5.60;;
2061;SDS011;11070;51.336;12.340;2023-06-14T08:26:37;6.20;;;5.80;;
2061;SDS011;11070;51.336;12.340;2023-06-14T08:29:04;6.65;;;5.97;;
2061;SDS011;11070;51.336;12.340;2023-06-14T08:31:32;6.07;;;5.57;;
2061;SDS011;11070;51.336;12.340;2023-06-14T08:33:58;6.00;;;5.60;;
2061;SDS011;11070;51.336;12.340;2023-06-14T08:36:23;6.70;;;6.20;;
2061;SDS011;11070;51.336;12.340;2023-06-14T08:38:49;6.50;;;5.93;;
2061;SDS011;11070;51.336;12.340;2023-06-14T08:41:17;6.13;;;5.63;;
2061;SDS011;11070;51.336;12.340;2023-06-14T08:43:47;8.52;;;6.30;;
2061;SDS011;11070;51.336;12.340;2023-06-14T08:46:13;7.53;;;5.67;;
2061;SDS011;11070;51.336;12.340;2023-06-14T08:48:44;9.90;;;5.73;;
2061;SDS011;11070;51.336;12.340;2023-06-14T08:51:15;7.10;;;6.03;;
2061;SDS011;11070;51.336;12.340;2023-06-14T08:53:49;6.30;;;5.80;;
2061;SDS011;11070;51.336;12.340;2023-06-14T08:56:25;6.67;;;6.13;;
2061;SDS011;11070;51.336;12.340;2023-06-14T08:58:52;6.00;;;5.50;;
2061;SDS011;11070;51.336;12.340;2023-06-14T09:01:19;7.00;;;5.70;;
2061;SDS011;11070;51.336;12.340;2023-06-14T09:03:46;5.53;;;5.03;;
2061;SDS011;11070;51.336;12.340;2023-06-14T09:06:13;5.23;;;4.93;;
2061;SDS011;11070;51.336;12.340;2023-06-14T09:08:43;5.30;;;4.87;;
2061;SDS011;11070;51.336;12.340;2023-06-14T09:11:11;5.17;;;4.87;;
2061;SDS011;11070;51.336;12.340;2023-06-14T09:13:37;4.53;;;4.13;;
2061;SDS011;11070;51.336;12.340;2023-06-14T09:16:04;6.00;;;5.10;;
2061;SDS011;11070;51.336;12.340;2023-06-14T09:18:37;6.10;;;5.50;;
2061;SDS011;11070;51.336;12.340;2023-06-14T09:21:05;6.00;;;5.60;;
2061;SDS011;11070;51.336;12.340;2023-06-14T09:23:36;5.73;;;5.30;;
2061;SDS011;11070;51.336;12.340;2023-06-14T09:26:36;6.17;;;5.07;;
2061;SDS011;11070;51.336;12.340;2023-06-14T09:28:55;5.30;;;4.90;;
2061;SDS011;11070;51.336;12.340;2023-06-14T09:31:21;5.97;;;5.47;;
2061;SDS011;11070;51.336;12.340;2023-06-14T09:33:50;6.53;;;5.07;;
2061;SDS011;11070;51.336;12.340;2023-06-14T09:38:52;5.60;;;5.10;;
2061;SDS011;11070;51.336;12.340;2023-06-14T09:41:38;6.57;;;5.30;;
2061;SDS011;11070;51.336;12.340;2023-06-14T09:44:09;4.73;;;4.43;;
2061;SDS011;11070;51.336;12.340;2023-06-14T09:46:36;6.13;;;4.30;;
2061;SDS011;11070;51.336;12.340;2023-06-14T09:49:02;4.77;;;4.47;;
2061;SDS011;11070;51.336;12.340;2023-06-14T09:51:29;4.37;;;4.07;;
2061;SDS011;11070;51.336;12.340;2023-06-14T09:53:58;4.67;;;4.27;;
2061;SDS011;11070;51.336;12.340;2023-06-14T09:56:34;5.40;;;4.43;;
2061;SDS011;11070;51.336;12.340;2023-06-14T09:59:03;4.80;;;4.43;;
2061;SDS011;11070;51.336;12.340;2023-06-14T10:01:31;4.53;;;4.23;;
2061;SDS011;11070;51.336;12.340;2023-06-14T10:04:01;4.50;;;4.10;;
2061;SDS011;11070;51.336;12.340;2023-06-14T10:06:29;4.67;;;4.27;;
2061;SDS011;11070;51.336;12.340;2023-06-14T10:08:59;5.17;;;4.00;;
2061;SDS011;11070;51.336;12.340;2023-06-14T10:11:26;8.73;;;4.37;;
2061;SDS011;11070;51.336;12.340;2023-06-14T10:13:53;4.83;;;4.43;;
2061;SDS011;11070;51.336;12.340;2023-06-14T10:16:30;3.67;;;3.40;;
2061;SDS011;11070;51.336;12.340;2023-06-14T10:21:37;3.27;;;3.07;;
2061;SDS011;11070;51.336;12.340;2023-06-14T10:24:12;3.50;;;3.00;;
2061;SDS011;11070;51.336;12.340;2023-06-14T10:26:50;3.73;;;3.53;;
2061;SDS011;11070;51.336;12.340;2023-06-14T10:29:16;4.00;;;3.67;;
2061;SDS011;11070;51.336;12.340;2023-06-14T10:31:43;4.00;;;3.80;;
2061;SDS011;11070;51.336;12.340;2023-06-14T10:34:11;4.13;;;3.90;;
2061;SDS011;11070;51.336;12.340;2023-06-14T10:36:45;5.33;;;3.60;;
2061;SDS011;11070;51.336;12.340;2023-06-14T10:39:16;4.20;;;3.80;;
2061;SDS011;11070;51.336;12.340;2023-06-14T10:41:50;3.40;;;3.20;;
2061;SDS011;11070;51.336;12.340;2023-06-14T10:46:48;3.20;;;3.00;;
2061;SDS011;11070;51.336;12.340;2023-06-14T10:52:11;3.20;;;3.00;;
2061;SDS011;11070;51.336;12.340;2023-06-14T10:54:56;3.17;;;2.83;;
2061;SDS011;11070;51.336;12.340;2023-06-14T10:57:32;2.90;;;2.60;;
2061;SDS011;11070;51.336;12.340;2023-06-14T10:59:59;2.73;;;2.63;;
2061;SDS011;11070;51.336;12.340;2023-06-14T11:05:06;3.50;;;3.30;;
2061;SDS011;11070;51.336;12.340;2023-06-14T11:10:37;3.50;;;3.30;;
2061;SDS011;11070;51.336;12.340;2023-06-14T11:13:04;4.00;;;3.80;;
2061;SDS011;11070;51.336;12.340;2023-06-14T11:15:31;3.60;;;3.40;;
2061;SDS011;11070;51.336;12.340;2023-06-14T11:17:57;3.90;;;3.60;;
2061;SDS011;11070;51.336;12.340;2023-06-14T11:20:26;3.23;;;3.13;;
2061;SDS011;11070;51.336;12.340;2023-06-14T11:22:56;4.70;;;3.70;;
2061;SDS011;11070;51.336;12.340;2023-06-14T11:25:22;3.50;;;3.30;;
2061;SDS011;11070;51.336;12.340;2023-06-14T11:27:51;3.80;;;3.50;;
2061;SDS011;11070;51.336;12.340;2023-06-14T11:30:17;4.40;;;4.00;;
2061;SDS011;11070;51.336;12.340;2023-06-14T11:32:49;3.67;;;3.20;;
2061;SDS011;11070;51.336;12.340;2023-06-14T11:35:17;3.47;;;3.27;;
2061;SDS011;11070;51.336;12.340;2023-06-14T11:37:44;3.93;;;3.50;;
2061;SDS011;11070;51.336;12.340;2023-06-14T11:40:10;4.07;;;3.77;;
2061;SDS011;11070;51.336;12.340;2023-06-14T11:42:37;3.83;;;3.63;;
2061;SDS011;11070;51.336;12.340;2023-06-14T11:45:09;3.80;;;3.60;;
2061;SDS011;11070;51.336;12.340;2023-06-14T11:47:37;4.03;;;3.63;;
2061;SDS011;11070;51.336;12.340;2023-06-14T11:50:05;4.20;;;3.80;;
2061;SDS011;11070;51.336;12.340;2023-06-14T11:52:32;4.10;;;3.80;;
2061;SDS011;11070;51.336;12.340;2023-06-14T11:54:58;4.30;;;4.10;;
2061;SDS011;11070;51.336;12.340;2023-06-14T11:57:24;3.83;;;3.60;;
2061;SDS011;11070;51.336;12.340;2023-06-14T11:59:50;4.60;;;4.20;;
2061;SDS011;11070;51.336;12.340;2023-06-14T12:02:16;4.30;;;3.60;;
2061;SDS011;11070;51.336;12.340;2023-06-14T12:04:44;3.50;;;3.27;;
2061;SDS011;11070;51.336;12.340;2023-06-14T12:07:13;3.70;;;3.50;;
2061;SDS011;11070;51.336;12.340;2023-06-14T12:10:26;3.30;;;3.10;;
2061;SDS011;11070;51.336;12.340;2023-06-14T12:12:27;3.70;;;3.50;;
2061;SDS011;11070;51.336;12.340;2023-06-14T12:14:57;3.73;;;3.53;;
2061;SDS011;11070;51.336;12.340;2023-06-14T12:17:23;4.30;;;3.87;;
2061;SDS011;11070;51.336;12.340;2023-06-14T12:19:49;4.50;;;4.10;;
2061;SDS011;11070;51.336;12.340;2023-06-14T12:22:15;4.73;;;3.93;;
2061;SDS011;11070;51.336;12.340;2023-06-14T12:24:44;4.10;;;3.90;;
2061;SDS011;11070;51.336;12.340;2023-06-14T12:27:10;4.23;;;3.90;;
2061;SDS011;11070;51.336;12.340;2023-06-14T12:29:40;4.03;;;3.63;;
2061;SDS011;11070;51.336;12.340;2023-06-14T12:32:08;3.87;;;3.67;;
2061;SDS011;11070;51.336;12.340;2023-06-14T12:34:34;5.77;;;5.27;;
2061;SDS011;11070;51.336;12.340;2023-06-14T12:37:00;4.30;;;3.90;;
2061;SDS011;11070;51.336;12.340;2023-06-14T12:39:26;4.67;;;4.37;;
2061;SDS011;11070;51.336;12.340;2023-06-14T12:41:52;4.20;;;4.00;;
2061;SDS011;11070;51.336;12.340;2023-06-14T12:44:19;4.40;;;4.00;;
2061;SDS011;11070;51.336;12.340;2023-06-14T12:46:45;4.20;;;3.90;;
2061;SDS011;11070;51.336;12.340;2023-06-14T12:49:11;4.10;;;3.90;;
2061;SDS011;11070;51.336;12.340;2023-06-14T12:51:37;4.20;;;4.00;;
2061;SDS011;11070;51.336;12.340;2023-06-14T12:54:04;4.87;;;4.50;;
2061;SDS011;11070;51.336;12.340;2023-06-14T12:56:30;4.33;;;4.03;;
2061;SDS011;11070;51.336;12.340;2023-06-14T12:58:56;4.30;;;4.00;;
2061;SDS011;11070;51.336;12.340;2023-06-14T13:01:23;4.67;;;4.27;;
2061;SDS011;11070;51.336;12.340;2023-06-14T13:03:49;4.27;;;3.90;;
2061;SDS011;11070;51.336;12.340;2023-06-14T13:06:16;4.47;;;4.10;;
2061;SDS011;11070;51.336;12.340;2023-06-14T13:08:42;4.30;;;4.00;;
2061;SDS011;11070;51.336;12.340;2023-06-14T13:11:08;4.67;;;4.17;;
2061;SDS011;11070;51.336;12.340;2023-06-14T13:13:34;4.90;;;4.57;;
2061;SDS011;11070;51.336;12.340;2023-06-14T13:16:00;4.20;;;3.90;;
2061;SDS011;11070;51.336;12.340;2023-06-14T13:18:25;4.80;;;4.20;;
2061;SDS011;11070;51.336;12.340;2023-06-14T13:20:51;5.20;;;4.80;;
2061;SDS011;11070;51.336;12.340;2023-06-14T13:23:17;5.27;;;4.87;;
2061;SDS011;11070;51.336;12.340;2023-06-14T13:25:42;4.63;;;4.33;;
2061;SDS011;11070;51.336;12.340;2023-06-14T13:28:09;6.10;;;4.60;;
2061;SDS011;11070;51.336;12.340;2023-06-14T13:30:35;5.07;;;4.60;;
2061;SDS011;11070;51.336;12.340;2023-06-14T13:33:00;5.80;;;5.40;;
2061;SDS011;11070;51.336;12.340;2023-06-14T13:35:27;5.27;;;4.77;;
2061;SDS011;11070;51.336;12.340;2023-06-14T13:37:54;4.97;;;4.20;;
2061;SDS011;11070;51.336;12.340;2023-06-14T13:40:19;4.47;;;4.07;;
2061;SDS011;11070;51.336;12.340;2023-06-14T13:42:45;6.53;;;4.70;;
2061;SDS011;11070;51.336;12.340;2023-06-14T13:45:12;5.00;;;4.70;;
2061;SDS011;11070;51.336;12.340;2023-06-14T13:47:38;5.43;;;4.70;;
2061;SDS011;11070;51.336;12.340;2023-06-14T13:50:04;4.97;;;4.60;;
2061;SDS011;11070;51.336;12.340;2023-06-14T13:52:30;4.80;;;4.50;;
2061;SDS011;11070;51.336;12.340;2023-06-14T13:54:56;5.10;;;4.70;;
2061;SDS011;11070;51.336;12.340;2023-06-14T13:57:22;5.70;;;5.17;;
2061;SDS011;11070;51.336;12.340;2023-06-14T13:59:47;5.40;;;5.00;;
2061;SDS011;11070;51.336;12.340;2023-06-14T14:02:13;5.43;;;5.03;;
2061;SDS011;11070;51.336;12.340;2023-06-14T14:04:40;5.27;;;4.87;;
2061;SDS011;11070;51.336;12.340;2023-06-14T14:07:06;5.30;;;4.90;;
2061;SDS011;11070;51.336;12.340;2023-06-14T14:09:32;5.30;;;5.00;;
2061;SDS011;11070;51.336;12.340;2023-06-14T14:12:02;5.60;;;5.10;;
2061;SDS011;11070;51.336;12.340;2023-06-14T14:14:29;5.33;;;4.83;;
2061;SDS011;11070;51.336;12.340;2023-06-14T14:16:57;5.20;;;4.90;;
2061;SDS011;11070;51.336;12.340;2023-06-14T14:19:23;5.37;;;4.97;;
2061;SDS011;11070;51.336;12.340;2023-06-14T14:21:49;5.63;;;4.90;;
2061;SDS011;11070;51.336;12.340;2023-06-14T14:24:15;6.53;;;4.73;;
2061;SDS011;11070;51.336;12.340;2023-06-14T14:26:41;5.40;;;5.00;;
2061;SDS011;11070;51.336;12.340;2023-06-14T14:29:07;5.03;;;4.73;;
2061;SDS011;11070;51.336;12.340;2023-06-14T14:31:33;4.77;;;4.47;;
2061;SDS011;11070;51.336;12.340;2023-06-14T14:33:59;4.60;;;4.30;;
2061;SDS011;11070;51.336;12.340;2023-06-14T14:36:24;4.70;;;4.40;;
2061;SDS011;11070;51.336;12.340;2023-06-14T14:38:50;5.57;;;5.10;;
2061;SDS011;11070;51.336;12.340;2023-06-14T14:41:19;4.97;;;4.67;;
2061;SDS011;11070;51.336;12.340;2023-06-14T14:43:44;5.10;;;4.80;;
2061;SDS011;11070;51.336;12.340;2023-06-14T14:46:10;5.30;;;4.70;;
2061;SDS011;11070;51.336;12.340;2023-06-14T14:48:36;5.37;;;4.90;;
2061;SDS011;11070;51.336;12.340;2023-06-14T14:51:01;4.93;;;4.43;;
2061;SDS011;11070;51.336;12.340;2023-06-14T14:53:28;4.70;;;4.40;;
2061;SDS011;11070;51.336;12.340;2023-06-14T14:55:54;5.03;;;4.63;;
2061;SDS011;11070;51.336;12.340;2023-06-14T14:58:19;5.00;;;4.50;;
2061;SDS011;11070;51.336;12.340;2023-06-14T15:00:45;4.97;;;4.57;;
2061;SDS011;11070;51.336;12.340;2023-06-14T15:03:12;5.30;;;4.40;;
2061;SDS011;11070;51.336;12.340;2023-06-14T15:05:38;5.63;;;4.03;;
2061;SDS011;11070;51.336;12.340;2023-06-14T15:08:04;3.87;;;3.67;;
2061;SDS011;11070;51.336;12.340;2023-06-14T15:10:35;4.70;;;4.30;;
2061;SDS011;11070;51.336;12.340;2023-06-14T15:13:01;4.70;;;4.40;;